Time;durP1;ratioP1;P1;durP2;ratioP2;P2;SDS_P1;SDS_P2;PMS_P1;PMS_P2;Temp;Humidity;BMP_temperature;BMP_pressure;BME280_temperature;BME280_humidity;BME280_pressure;Samples;Min_cycle;Max_cycle;Signal;HPM_P1;HPM_P2
2022/10/20 00:01:26;;;;;;;11.18;3.03;;;7.10;99.90;;;;;;5125997;28;20372;-85
2022/10/20 00:03:54;;;;;;;8.13;2.83;;;7.10;99.90;;;;;;5108808;28;20093;-84
2022/10/20 00:06:26;;;;;;;8.50;3.25;;;7.50;99.90;;;;;;5092282;28;20090;-84
2022/10/20 00:08:58;;;;;;;7.95;3.00;;;7.10;99.90;;;;;;5125805;28;20131;-84
2022/10/20 00:11:26;;;;;;;7.45;2.83;;;7.00;99.90;;;;;;5125701;28;20522;-84
2022/10/20 00:13:55;;;;;;;5.72;3.00;;;7.10;99.90;;;;;;5091592;28;20048;-84
2022/10/20 00:16:23;;;;;;;9.25;3.22;;;7.00;99.90;;;;;;5092141;28;20074;-85
2022/10/20 00:18:51;;;;;;;7.50;3.00;;;7.00;99.90;;;;;;5125221;28;20122;-85
2022/10/20 00:21:20;;;;;;;6.18;3.03;;;6.90;99.90;;;;;;5111650;28;20036;-84
2022/10/20 00:23:47;;;;;;;9.80;3.30;;;6.90;99.90;;;;;;5129027;28;20090;-85
2022/10/20 00:26:20;;;;;;;7.18;2.80;;;6.90;99.90;;;;;;5095957;28;20044;-83
2022/10/20 00:28:47;;;;;;;6.15;2.85;;;6.90;99.90;;;;;;5112310;28;20040;-84
2022/10/20 00:31:16;;;;;;;7.80;3.13;;;6.90;99.90;;;;;;5112351;28;20400;-84
2022/10/20 00:33:45;;;;;;;8.90;2.53;;;7.50;99.90;;;;;;5111927;28;20396;-84
2022/10/20 00:36:14;;;;;;;12.13;2.50;;;7.00;99.90;;;;;;5112281;28;20089;-84
2022/10/20 00:38:41;;;;;;;8.77;2.72;;;6.90;99.90;;;;;;5112201;28;20177;-83
2022/10/20 00:41:17;;;;;;;6.07;2.78;;;7.00;99.90;;;;;;5095915;28;20036;-84
2022/10/20 00:43:44;;;;;;;;;;;6.90;99.90;;;;;;5112283;28;20036;-84
2022/10/20 00:46:14;;;;;;;5.60;2.42;;;7.30;99.90;;;;;;5111897;28;19922;-85
2022/10/20 00:48:47;;;;;;;5.25;2.75;;;6.90;99.90;;;;;;5112438;28;20044;-84
2022/10/20 00:51:17;;;;;;;6.28;2.83;;;6.90;99.90;;;;;;5111983;28;20461;-84
2022/10/20 00:53:45;;;;;;;6.78;2.80;;;6.90;99.90;;;;;;5128878;28;20036;-85
2022/10/20 00:56:12;;;;;;;5.63;2.75;;;7.10;99.90;;;;;;5112085;28;20484;-85
2022/10/20 00:58:39;;;;;;;7.43;2.65;;;7.30;99.90;;;;;;5112247;28;20039;-84
2022/10/20 01:01:06;;;;;;;5.65;2.55;;;6.90;99.90;;;;;;5078458;28;20400;-84
2022/10/20 01:03:44;;;;;;;6.50;2.58;;;6.90;99.90;;;;;;5095163;28;20078;-84
2022/10/20 01:06:13;;;;;;;5.75;2.45;;;6.90;99.90;;;;;;5111913;28;20522;-85
2022/10/20 01:08:40;;;;;;;5.95;2.70;;;6.90;99.90;;;;;;5128681;28;20044;-84
2022/10/20 01:11:32;;;;;;;7.90;2.45;;;6.90;99.90;;;;;;5111456;28;20404;-85
2022/10/20 01:14:50;;;;;;;10.27;2.70;;;6.90;99.90;;;;;;5127657;28;20059;-84
2022/10/20 01:17:34;;;;;;;7.20;2.90;;;7.00;99.90;;;;;;5090070;28;20404;-85
2022/10/20 01:20:17;;;;;;;6.30;2.58;;;6.90;99.90;;;;;;5107804;28;20044;-84
2022/10/20 01:23:02;;;;;;;8.52;2.65;;;6.90;99.90;;;;;;5111357;28;20040;-84
2022/10/20 01:25:44;;;;;;;6.60;2.58;;;6.80;99.90;;;;;;5111435;28;20085;-85
2022/10/20 01:28:18;;;;;;;22.35;2.50;;;6.80;99.90;;;;;;5111297;28;20420;-85
2022/10/20 01:30:51;;;;;;;5.20;2.65;;;6.80;99.90;;;;;;5111505;28;20527;-84
2022/10/20 01:33:27;;;;;;;6.18;2.88;;;6.90;99.90;;;;;;5110809;28;20075;-84
2022/10/20 01:36:22;;;;;;;7.97;2.70;;;6.70;99.90;;;;;;5111135;28;20052;-85
2022/10/20 01:39:29;;;;;;;7.55;3.10;;;6.70;99.90;;;;;;5111024;28;20044;-84
2022/10/20 01:42:01;;;;;;;6.45;2.63;;;6.70;99.90;;;;;;5105161;28;20097;-84
2022/10/20 01:44:32;;;;;;;5.00;2.33;;;6.70;99.90;;;;;;5108783;28;20047;-84
2022/10/20 01:47:00;;;;;;;5.00;2.65;;;6.70;99.90;;;;;;5127659;28;20435;-84
2022/10/20 01:49:29;;;;;;;10.02;2.80;;;6.60;99.90;;;;;;5094425;28;20040;-84
2022/10/20 01:51:56;;;;;;;8.45;2.63;;;6.60;99.90;;;;;;5094213;28;20040;-84
2022/10/20 01:54:25;;;;;;;9.48;3.00;;;6.50;99.90;;;;;;5094425;28;20047;-85
2022/10/20 01:57:16;;;;;;;6.30;2.45;;;6.50;99.90;;;;;;5110618;28;20480;-84
2022/10/20 01:59:55;;;;;;;7.88;2.90;;;6.50;99.90;;;;;;5127721;28;20103;-84
2022/10/20 02:02:41;;;;;;;5.00;2.63;;;6.50;99.90;;;;;;5110936;28;20039;-84
2022/10/20 02:05:20;;;;;;;9.63;2.70;;;6.50;99.90;;;;;;5110342;28;20128;-84
2022/10/20 02:07:48;;;;;;;7.80;2.90;;;6.50;99.90;;;;;;5110646;28;20130;-84
2022/10/20 02:10:27;;;;;;;6.80;2.53;;;6.50;99.90;;;;;;5093853;28;20046;-84
2022/10/20 02:12:59;;;;;;;5.82;2.75;;;6.50;99.90;;;;;;5126667;28;20416;-84
2022/10/20 02:15:28;;;;;;;6.20;2.22;;;6.50;99.90;;;;;;5110121;28;20040;-84
2022/10/20 02:18:03;;;;;;;7.45;2.60;;;6.50;99.90;;;;;;5109859;28;20500;-84
2022/10/20 02:20:31;;;;;;;5.65;2.55;;;6.50;99.90;;;;;;5110765;28;20073;-85
2022/10/20 02:22:59;;;;;;;6.15;2.67;;;6.40;99.90;;;;;;5093392;28;20488;-84
2022/10/20 02:25:28;;;;;;;7.80;3.28;;;6.50;99.90;;;;;;5093439;28;20048;-85
2022/10/20 02:27:57;;;;;;;4.97;2.65;;;6.80;99.90;;;;;;5126835;28;20051;-83
2022/10/20 02:30:23;;;;;;;6.18;2.67;;;6.60;99.90;;;;;;5110383;28;20454;-85
2022/10/20 02:32:51;;;;;;;7.43;3.10;;;7.20;99.90;;;;;;5093740;28;20108;-84
2022/10/20 02:35:28;;;;;;;7.97;2.78;;;6.50;99.90;;;;;;5109682;28;20495;-85
2022/10/20 02:37:56;;;;;;;7.10;2.60;;;6.40;99.90;;;;;;5110043;28;20051;-84
2022/10/20 02:40:23;;;;;;;6.43;2.65;;;6.40;99.90;;;;;;5109942;28;20075;-84
2022/10/20 02:42:49;;;;;;;9.00;3.15;;;6.40;99.90;;;;;;5093363;28;20079;-83
2022/10/20 02:45:16;;;;;;;11.05;2.88;;;6.50;99.90;;;;;;5109494;28;20040;-83
2022/10/20 02:47:43;;;;;;;11.82;3.28;;;6.90;99.90;;;;;;5093095;28;20044;-83
2022/10/20 02:50:10;;;;;;;6.75;3.63;;;6.90;99.90;;;;;;5109357;28;20051;-83
2022/10/20 02:52:37;;;;;;;9.90;2.78;;;6.40;99.90;;;;;;5126593;28;20040;-83
2022/10/20 02:55:04;;;;;;;8.77;3.05;;;6.70;99.90;;;;;;5092928;28;20064;-83
2022/10/20 02:57:31;;;;;;;6.75;3.15;;;6.40;99.90;;;;;;5076266;28;20079;-83
2022/10/20 02:59:57;;;;;;;10.45;2.95;;;6.40;99.90;;;;;;5109465;28;20071;-83
2022/10/20 03:02:24;;;;;;;8.40;3.22;;;6.40;99.90;;;;;;5092483;28;20043;-83
2022/10/20 03:04:51;;;;;;;6.50;3.58;;;6.40;99.90;;;;;;5076530;28;20042;-83
2022/10/20 03:07:17;;;;;;;6.35;2.90;;;6.40;99.90;;;;;;5076570;28;20112;-83
2022/10/20 03:09:44;;;;;;;9.52;3.42;;;6.40;99.90;;;;;;5092774;28;20036;-83
2022/10/20 03:12:11;;;;;;;9.32;3.10;;;6.40;99.90;;;;;;5075840;28;20059;-83
2022/10/20 03:14:38;;;;;;;7.05;3.45;;;6.70;99.90;;;;;;5076290;28;20047;-83
2022/10/20 03:17:04;;;;;;;10.57;3.42;;;6.40;99.90;;;;;;5092655;28;20036;-83
2022/10/20 03:19:31;;;;;;;7.75;3.60;;;6.40;99.90;;;;;;5072630;28;20119;-83
2022/10/20 03:21:58;;;;;;;9.57;3.53;;;6.40;99.90;;;;;;5089339;28;20040;-83
2022/10/20 03:24:24;;;;;;;10.48;3.60;;;6.40;99.90;;;;;;5088917;28;20044;-83
2022/10/20 03:26:51;;;;;;;9.77;3.88;;;6.40;99.90;;;;;;5072598;28;20045;-83
2022/10/20 03:29:18;;;;;;;8.80;3.20;;;6.30;99.90;;;;;;5072395;28;20080;-83
2022/10/20 03:31:44;;;;;;;8.60;3.60;;;6.30;99.90;;;;;;5072547;28;20040;-83
2022/10/20 03:34:12;;;;;;;6.72;3.55;;;6.20;99.90;;;;;;5072298;28;20496;-83
2022/10/20 03:36:38;;;;;;;7.47;3.60;;;6.30;99.90;;;;;;5089071;28;20504;-83
2022/10/20 03:39:08;;;;;;;6.60;3.42;;;6.30;99.90;;;;;;5088568;28;20029;-82
2022/10/20 03:41:35;;;;;;;9.10;3.58;;;6.20;99.90;;;;;;5072318;28;20040;-83
2022/10/20 03:44:01;;;;;;;10.93;3.83;;;6.20;99.90;;;;;;5072765;28;20042;-83
2022/10/20 03:46:28;;;;;;;10.02;4.00;;;6.20;99.90;;;;;;5072060;28;20036;-83
2022/10/20 03:48:55;;;;;;;11.85;3.90;;;6.20;99.90;;;;;;5088976;28;20090;-83
2022/10/20 03:51:21;;;;;;;6.78;3.75;;;6.10;99.90;;;;;;5072065;28;20043;-83
2022/10/20 03:53:48;;;;;;;7.10;3.53;;;6.10;99.90;;;;;;5072435;28;20041;-83
2022/10/20 03:56:18;;;;;;;8.18;3.63;;;6.20;99.90;;;;;;5091788;28;20045;-83
2022/10/20 03:58:45;;;;;;;8.77;3.92;;;6.20;99.90;;;;;;5092580;28;20033;-83
2022/10/20 04:01:17;;;;;;;6.55;3.47;;;6.10;99.90;;;;;;5076255;28;20046;-84
2022/10/20 04:03:44;;;;;;;8.90;4.38;;;6.10;99.90;;;;;;5092778;28;20071;-84
2022/10/20 04:06:12;;;;;;;11.07;3.83;;;6.00;99.90;;;;;;5109160;28;20076;-84
2022/10/20 04:08:39;;;;;;;6.93;3.80;;;6.00;99.90;;;;;;5076326;28;20033;-84
2022/10/20 04:11:06;;;;;;;9.50;3.78;;;6.00;99.90;;;;;;5093086;28;20105;-84
2022/10/20 04:13:33;;;;;;;12.32;4.13;;;6.40;99.90;;;;;;5075535;28;20052;-84
2022/10/20 04:16:00;;;;;;;8.65;4.40;;;6.10;99.90;;;;;;5075673;28;20143;-84
2022/10/20 04:18:26;;;;;;;9.25;3.92;;;6.00;99.90;;;;;;5092481;28;20120;-84
2022/10/20 04:20:53;;;;;;;10.20;3.97;;;6.60;99.90;;;;;;5076062;28;20075;-84
2022/10/20 04:23:20;;;;;;;10.32;3.75;;;6.70;99.90;;;;;;5075234;28;20222;-84
2022/10/20 04:25:47;;;;;;;8.00;3.97;;;6.00;99.90;;;;;;5075660;28;20047;-84
2022/10/20 04:28:16;;;;;;;8.07;4.30;;;6.00;99.90;;;;;;5092051;28;20052;-84
2022/10/20 04:30:43;;;;;;;8.57;4.30;;;6.00;99.90;;;;;;5091858;28;20048;-84
2022/10/20 04:33:11;;;;;;;8.35;4.63;;;6.00;99.90;;;;;;5091849;28;20041;-84
2022/10/20 04:35:38;;;;;;;8.35;4.63;;;6.00;99.90;;;;;;5108776;28;20033;-84
2022/10/20 04:38:05;;;;;;;8.93;4.30;;;6.00;99.90;;;;;;5075462;28;20119;-84
2022/10/20 04:40:32;;;;;;;8.88;4.32;;;6.00;99.90;;;;;;5091895;28;20042;-84
2022/10/20 04:42:59;;;;;;;9.75;4.10;;;6.00;99.90;;;;;;5075695;28;20036;-84
2022/10/20 04:45:27;;;;;;;10.85;4.90;;;6.00;99.90;;;;;;5108755;28;20527;-84
2022/10/20 04:47:57;;;;;;;11.75;5.13;;;6.10;99.90;;;;;;5091844;28;20052;-84
2022/10/20 04:50:23;;;;;;;12.30;5.65;;;6.20;99.90;;;;;;5091934;28;20041;-84
2022/10/20 04:52:50;;;;;;;9.00;4.47;;;6.00;99.90;;;;;;5091836;28;20052;-84
2022/10/20 04:55:17;;;;;;;12.32;5.18;;;6.50;99.90;;;;;;5074883;28;20037;-84
2022/10/20 04:57:44;;;;;;;13.38;4.65;;;7.20;99.90;;;;;;5091836;28;20480;-84
2022/10/20 05:00:11;;;;;;;11.68;4.78;;;6.00;99.90;;;;;;5074965;28;20102;-84
2022/10/20 05:02:38;;;;;;;11.70;5.60;;;6.00;99.90;;;;;;5091341;28;20649;-84
2022/10/20 05:05:05;;;;;;;8.90;4.65;;;6.00;99.90;;;;;;5075044;28;20123;-84
2022/10/20 05:07:31;;;;;;;9.73;4.95;;;6.00;99.90;;;;;;5089886;28;20080;-84
2022/10/20 05:09:58;;;;;;;8.95;4.40;;;6.00;99.90;;;;;;5094858;28;20086;-84
2022/10/20 05:12:26;;;;;;;12.27;5.07;;;6.40;99.90;;;;;;5094257;28;20139;-84
2022/10/20 05:14:53;;;;;;;9.70;4.97;;;6.40;99.90;;;;;;5094819;28;20044;-84
2022/10/20 05:17:20;;;;;;;9.15;4.57;;;6.00;99.90;;;;;;5077665;28;20119;-85
2022/10/20 05:19:46;;;;;;;8.70;4.50;;;6.20;99.90;;;;;;5094757;28;20032;-83
2022/10/20 05:22:13;;;;;;;9.10;5.30;;;6.00;99.90;;;;;;5077890;28;20040;-84
2022/10/20 05:24:40;;;;;;;11.43;4.75;;;6.00;99.90;;;;;;5078034;28;20040;-84
2022/10/20 05:27:06;;;;;;;12.30;5.20;;;6.00;99.90;;;;;;5078271;28;20050;-84
2022/10/20 05:29:33;;;;;;;9.95;3.80;;;6.10;99.90;;;;;;5077610;28;20138;-84
2022/10/20 05:32:00;;;;;;;10.77;4.70;;;6.00;99.90;;;;;;5094639;28;20051;-84
2022/10/20 05:34:26;;;;;;;11.52;5.20;;;6.10;99.90;;;;;;5094237;28;20047;-84
2022/10/20 05:36:53;;;;;;;9.77;4.32;;;5.90;99.90;;;;;;5111118;28;20040;-84
2022/10/20 05:39:20;;;;;;;8.68;4.25;;;6.20;99.90;;;;;;5094152;28;20222;-83
2022/10/20 05:41:47;;;;;;;9.48;4.22;;;5.90;99.90;;;;;;5110927;28;20044;-83
2022/10/20 05:44:16;;;;;;;10.32;4.68;;;6.00;99.90;;;;;;5111004;28;20093;-84
2022/10/20 05:46:43;;;;;;;12.73;5.75;;;5.90;99.90;;;;;;5076810;28;20078;-84
2022/10/20 05:49:13;;;;;;;11.52;4.75;;;5.90;99.90;;;;;;5077350;28;20075;-84
2022/10/20 05:51:39;;;;;;;10.65;4.65;;;6.00;99.90;;;;;;5110595;28;20040;-84
2022/10/20 05:54:06;;;;;;;8.82;4.55;;;5.90;99.90;;;;;;5077979;28;20043;-84
2022/10/20 05:56:33;;;;;;;9.95;4.97;;;5.90;99.90;;;;;;5077486;28;20361;-84
2022/10/20 05:58:59;;;;;;;10.35;4.97;;;5.90;99.90;;;;;;5094025;28;20068;-84
2022/10/20 06:01:46;;;;;;;8.63;4.65;;;5.90;99.90;;;;;;5110401;28;20075;-83
2022/10/20 06:04:19;;;;;;;11.75;5.53;;;5.90;99.90;;;;;;5127512;28;20038;-84
2022/10/20 06:06:47;;;;;;;8.18;4.72;;;5.90;99.90;;;;;;5110041;28;20032;-84
2022/10/20 06:09:14;;;;;;;11.15;4.70;;;6.20;99.90;;;;;;5077645;28;20056;-84
2022/10/20 06:11:41;;;;;;;12.38;5.45;;;5.90;99.90;;;;;;5093413;28;20051;-84
2022/10/20 06:14:08;;;;;;;12.68;5.28;;;5.90;99.90;;;;;;5076708;28;20051;-83
2022/10/20 06:16:35;;;;;;;12.77;5.07;;;6.70;99.90;;;;;;5093190;28;20075;-84
2022/10/20 06:19:02;;;;;;;10.93;5.30;;;6.20;99.90;;;;;;5093048;28;20028;-84
2022/10/20 06:21:31;;;;;;;12.15;5.68;;;6.10;99.90;;;;;;5110102;28;20089;-84
2022/10/20 06:23:59;;;;;;;13.73;5.00;;;5.90;99.90;;;;;;5110144;28;20039;-85
2022/10/20 06:26:31;;;;;;;9.18;4.70;;;5.90;99.90;;;;;;5110168;28;20122;-84
2022/10/20 06:28:59;;;;;;;10.38;5.00;;;6.60;99.90;;;;;;5094348;28;20732;-84
2022/10/20 06:31:27;;;;;;;11.23;5.43;;;6.60;99.90;;;;;;5093925;28;20075;-84
2022/10/20 06:33:54;;;;;;;10.00;4.78;;;5.90;99.90;;;;;;5110088;28;20446;-85
2022/10/20 06:36:22;;;;;;;12.38;4.93;;;5.90;99.90;;;;;;5093729;28;20040;-85
2022/10/20 06:38:53;;;;;;;12.38;5.38;;;6.20;99.90;;;;;;5093015;28;20036;-85
2022/10/20 06:41:20;;;;;;;8.68;4.57;;;5.90;99.90;;;;;;5126947;28;20040;-85
2022/10/20 06:43:46;;;;;;;9.98;5.00;;;6.10;99.90;;;;;;5093512;28;20040;-85
2022/10/20 06:46:16;;;;;;;11.65;5.00;;;6.00;99.90;;;;;;5093257;28;20184;-85
2022/10/20 06:48:43;;;;;;;12.48;4.70;;;7.30;99.90;;;;;;5109954;28;20115;-85
2022/10/20 06:51:12;;;;;;;10.60;4.75;;;6.00;99.90;;;;;;5093092;28;20032;-85
2022/10/20 06:53:40;;;;;;;12.98;4.90;;;6.00;99.90;;;;;;5093039;28;20421;-85
2022/10/20 06:56:11;;;;;;;10.32;4.80;;;6.10;99.90;;;;;;5093351;28;20036;-85
2022/10/20 06:58:39;;;;;;;9.85;4.43;;;6.10;99.90;;;;;;5109278;28;20126;-85
2022/10/20 07:01:10;;;;;;;8.48;4.18;;;6.10;99.90;;;;;;5093149;28;20080;-85
2022/10/20 07:03:37;;;;;;;9.18;4.50;;;6.20;99.90;;;;;;5096913;28;20044;-84
2022/10/20 07:06:05;;;;;;;10.48;4.10;;;6.20;99.90;;;;;;5076749;28;20043;-84
2022/10/20 07:08:33;;;;;;;9.57;4.70;;;6.20;99.90;;;;;;5120861;28;20106;-84
2022/10/20 07:11:05;;;;;;;9.63;4.82;;;6.30;99.90;;;;;;5109458;28;20131;-84
2022/10/20 07:13:33;;;;;;;8.73;4.07;;;6.30;99.90;;;;;;5108801;28;20105;-84
2022/10/20 07:16:00;;;;;;;12.88;5.20;;;6.40;99.90;;;;;;5109213;28;20496;-85
2022/10/20 07:18:28;;;;;;;9.75;4.75;;;6.40;99.90;;;;;;5092496;28;20047;-84
2022/10/20 07:21:02;;;;;;;10.98;4.65;;;6.70;99.90;;;;;;5093548;28;20139;-84
2022/10/20 07:23:31;;;;;;;7.55;3.97;;;6.40;99.90;;;;;;5109232;28;20050;-83
2022/10/20 07:26:09;;;;;;;9.18;4.45;;;6.60;99.90;;;;;;5092448;28;20472;-85
2022/10/20 07:28:36;;;;;;;9.85;4.80;;;6.50;99.90;;;;;;5109316;28;20048;-86
2022/10/20 07:31:05;;;;;;;10.27;4.40;;;6.60;99.90;;;;;;5108737;28;20050;-86
2022/10/20 07:33:31;;;;;;;10.05;4.60;;;6.60;99.90;;;;;;5109423;28;20044;-85
2022/10/20 07:35:58;;;;;;;9.75;4.60;;;6.70;99.90;;;;;;5109449;28;20036;-86
2022/10/20 07:38:25;;;;;;;9.90;4.75;;;6.80;99.90;;;;;;5093026;28;20044;-86
2022/10/20 07:40:52;;;;;;;9.90;4.78;;;6.50;99.90;;;;;;5109527;28;20119;-85
2022/10/20 07:43:19;;;;;;;7.25;4.05;;;6.90;99.90;;;;;;5079126;28;20133;-86
2022/10/20 07:45:45;;;;;;;10.70;4.22;;;6.90;99.90;;;;;;5113677;28;20052;-85
2022/10/20 07:48:12;;;;;;;10.35;4.32;;;7.00;99.90;;;;;;5092861;28;20492;-85
2022/10/20 07:50:39;;;;;;;9.23;4.43;;;7.00;99.90;;;;;;5076062;28;20047;-86
2022/10/20 07:53:06;;;;;;;11.90;4.82;;;7.10;99.90;;;;;;5076001;28;20518;-86
2022/10/20 07:55:33;;;;;;;9.32;4.50;;;7.10;99.90;;;;;;5092210;28;20127;-85
2022/10/20 07:58:00;;;;;;;8.50;4.05;;;7.10;99.90;;;;;;5092649;28;20032;-86
2022/10/20 08:00:26;;;;;;;10.00;3.90;;;7.20;99.90;;;;;;5076012;28;20043;-86
2022/10/20 08:02:53;;;;;;;11.68;3.97;;;7.10;99.90;;;;;;5108879;28;20040;-86
2022/10/20 08:05:20;;;;;;;9.98;4.55;;;7.20;99.90;;;;;;5092635;28;20036;-86
2022/10/20 08:07:46;;;;;;;8.27;4.32;;;7.20;99.90;;;;;;5076085;28;20114;-85
2022/10/20 08:10:13;;;;;;;8.82;4.30;;;7.20;99.90;;;;;;5092567;28;20044;-86
2022/10/20 08:12:40;;;;;;;8.77;3.90;;;7.20;99.90;;;;;;5092286;28;20048;-86
2022/10/20 08:15:07;;;;;;;8.73;4.20;;;7.40;99.90;;;;;;5131727;28;20044;-86
2022/10/20 08:17:34;;;;;;;9.68;3.75;;;7.30;99.90;;;;;;5094681;28;20040;-85
2022/10/20 08:20:01;;;;;;;7.03;3.95;;;7.30;99.90;;;;;;5092308;28;20874;-86
2022/10/20 08:22:27;;;;;;;12.13;4.00;;;6.90;99.90;;;;;;5092663;28;20097;-86
2022/10/20 08:24:56;;;;;;;9.18;4.25;;;7.40;99.90;;;;;;5075925;28;20040;-86
2022/10/20 08:27:23;;;;;;;7.53;4.45;;;7.50;99.90;;;;;;5092746;28;20053;-86
2022/10/20 08:29:50;;;;;;;9.82;4.07;;;7.50;99.90;;;;;;5092663;28;20043;-86
2022/10/20 08:32:17;;;;;;;8.05;4.25;;;7.60;99.90;;;;;;5092557;28;20040;-86
2022/10/20 08:34:45;;;;;;;7.55;3.88;;;7.60;99.90;;;;;;5092387;28;20135;-86
2022/10/20 08:37:12;;;;;;;8.48;4.18;;;7.70;99.90;;;;;;5092733;28;20123;-86
2022/10/20 08:39:38;;;;;;;10.25;3.92;;;7.80;99.90;;;;;;5092444;28;20127;-86
2022/10/20 08:42:05;;;;;;;8.70;4.22;;;7.80;99.90;;;;;;5094474;28;20047;-86
2022/10/20 08:44:34;;;;;;;8.27;3.85;;;7.80;99.90;;;;;;5095742;28;20484;-86
2022/10/20 08:47:03;;;;;;;7.68;3.67;;;8.00;99.90;;;;;;5112151;28;20087;-86
2022/10/20 08:49:33;;;;;;;7.13;3.33;;;8.00;99.90;;;;;;5095998;28;20036;-87
2022/10/20 08:52:01;;;;;;;8.65;4.38;;;8.10;99.90;;;;;;5112360;28;20043;-87
2022/10/20 08:54:32;;;;;;;12.13;4.18;;;8.20;99.90;;;;;;5112732;28;20089;-86
2022/10/20 08:56:58;;;;;;;11.93;4.63;;;8.20;99.90;;;;;;5095451;28;20032;-86
2022/10/20 08:59:36;;;;;;;7.65;3.42;;;8.30;99.90;;;;;;5095704;28;20092;-86
2022/10/20 09:02:13;;;;;;;8.65;3.75;;;8.40;99.90;;;;;;5111846;28;20058;-86
2022/10/20 09:04:46;;;;;;;7.72;3.90;;;8.40;99.90;;;;;;5112202;28;20044;-86
2022/10/20 09:07:50;;;;;;;6.70;3.72;;;8.50;99.90;;;;;;5112204;28;20097;-86
2022/10/20 09:10:36;;;;;;;10.68;4.15;;;8.60;99.90;;;;;;5104791;28;20101;-86
2022/10/20 09:13:13;;;;;;;9.10;4.40;;;8.70;99.90;;;;;;5111769;28;20138;-85
2022/10/20 09:15:40;;;;;;;6.35;3.47;;;8.80;99.90;;;;;;5112122;28;20503;-86
2022/10/20 09:18:12;;;;;;;6.32;3.58;;;8.80;99.90;;;;;;5095558;28;20040;-87
2022/10/20 09:20:39;;;;;;;10.45;3.97;;;9.40;99.90;;;;;;5111906;28;20053;-86
2022/10/20 09:23:16;;;;;;;13.18;4.13;;;9.00;99.90;;;;;;5111490;28;20160;-85
2022/10/20 09:25:44;;;;;;;13.05;4.25;;;9.00;99.90;;;;;;5128485;28;20774;-86
2022/10/20 09:28:22;;;;;;;7.93;3.95;;;9.10;99.90;;;;;;5095018;28;20039;-86
2022/10/20 09:30:50;;;;;;;10.50;3.42;;;9.10;99.90;;;;;;5111790;28;20047;-86
2022/10/20 09:33:26;;;;;;;7.07;3.78;;;9.20;99.90;;;;;;5111372;28;20044;-85
2022/10/20 09:35:52;;;;;;;;;;;9.30;99.90;;;;;;5111430;28;20044;-86
2022/10/20 09:38:28;;;;;;;7.18;3.60;;;9.40;99.90;;;;;;5094896;28;20394;-86
2022/10/20 09:41:10;;;;;;;8.10;3.35;;;9.40;99.90;;;;;;5111462;28;20127;-86
2022/10/20 09:43:39;;;;;;;9.25;3.97;;;9.50;99.90;;;;;;5128349;28;20126;-86
2022/10/20 09:46:09;;;;;;;7.68;3.83;;;9.60;99.90;;;;;;5111024;28;20499;-85
2022/10/20 09:48:46;;;;;;;7.68;3.70;;;9.60;99.90;;;;;;5111238;28;20047;-86
2022/10/20 09:51:20;;;;;;;6.18;3.63;;;9.80;99.90;;;;;;5111148;28;20044;-85
2022/10/20 09:53:54;;;;;;;6.85;3.60;;;9.90;99.90;;;;;;5110369;28;20044;-86
2022/10/20 09:56:35;;;;;;;8.63;3.72;;;10.00;99.90;;;;;;5111148;28;20050;-86
2022/10/20 09:59:08;;;;;;;6.50;3.42;;;10.00;99.90;;;;;;5095703;28;20032;-86
2022/10/20 10:01:55;;;;;;;7.57;3.42;;;10.00;99.90;;;;;;5111308;28;20043;-86
2022/10/20 10:04:40;;;;;;;7.40;3.67;;;10.10;99.90;;;;;;5111107;28;20043;-86
2022/10/20 10:07:24;;;;;;;9.20;3.47;;;10.20;99.90;;;;;;5111043;28;20396;-86
2022/10/20 10:10:04;;;;;;;7.05;3.60;;;10.20;99.90;;;;;;5110480;28;20116;-85
2022/10/20 10:12:31;;;;;;;7.35;3.65;;;10.30;99.90;;;;;;5110935;28;20060;-86
2022/10/20 10:15:05;;;;;;;7.20;3.55;;;10.30;99.90;;;;;;5110620;28;20462;-86
2022/10/20 10:17:41;;;;;;;8.43;3.75;;;10.40;99.90;;;;;;5111005;28;20049;-86
2022/10/20 10:20:11;;;;;;;12.82;3.75;;;10.90;99.90;;;;;;5110102;28;20036;-86
2022/10/20 10:22:41;;;;;;;7.53;3.65;;;10.50;99.90;;;;;;5110405;28;20040;-86
2022/10/20 10:25:24;;;;;;;8.68;3.35;;;10.50;99.90;;;;;;5077192;28;20055;-86
2022/10/20 10:28:00;;;;;;;7.45;3.47;;;10.60;99.90;;;;;;5110709;28;20043;-86
2022/10/20 10:30:36;;;;;;;6.43;3.63;;;10.60;99.90;;;;;;5110444;28;20598;-86
2022/10/20 10:33:25;;;;;;;5.85;3.30;;;10.70;99.90;;;;;;5093680;28;20036;-86
2022/10/20 10:35:52;;;;;;;7.43;3.40;;;10.80;99.90;;;;;;5127420;28;20040;-86
2022/10/20 10:38:19;;;;;;;7.40;3.53;;;10.80;99.90;;;;;;5093513;28;20032;-86
2022/10/20 10:41:08;;;;;;;6.78;3.72;;;10.90;99.90;;;;;;5093799;28;20458;-86
2022/10/20 10:43:53;;;;;;;7.22;3.67;;;10.90;99.90;;;;;;5110373;28;20072;-86
2022/10/20 10:46:27;;;;;;;6.38;3.17;;;11.00;99.90;;;;;;5110318;28;20101;-86
2022/10/20 10:49:17;;;;;;;8.88;3.65;;;11.00;99.90;;;;;;5127631;28;20092;-86
2022/10/20 10:52:26;;;;;;;7.05;3.33;;;11.00;99.90;;;;;;5110346;28;20040;-86
2022/10/20 10:54:58;;;;;;;6.90;3.38;;;11.10;99.90;;;;;;5106972;28;20044;-86
2022/10/20 10:57:44;;;;;;;6.53;3.25;;;11.10;99.90;;;;;;5109953;28;20032;-86
2022/10/20 11:00:20;;;;;;;8.93;3.30;;;11.20;99.90;;;;;;5126575;28;20086;-85
2022/10/20 11:03:00;;;;;;;8.45;3.42;;;11.30;99.90;;;;;;5110344;28;20036;-86
2022/10/20 11:05:49;;;;;;;9.43;3.95;;;11.30;99.90;;;;;;5109439;28;20122;-86
2022/10/20 11:08:40;;;;;;;7.93;3.42;;;11.40;99.90;;;;;;5109684;28;20075;-86
2022/10/20 11:11:21;;;;;;;9.63;3.75;;;11.50;99.90;;;;;;5109886;28;20076;-86
2022/10/20 11:14:11;;;;;;;7.85;3.95;;;11.60;99.90;;;;;;5126729;28;20088;-86
2022/10/20 11:16:47;;;;;;;8.75;3.50;;;11.80;99.90;;;;;;5109949;28;20036;-86
2022/10/20 11:19:13;;;;;;;;;;;11.90;99.90;;;;;;5109853;28;20040;-86
2022/10/20 11:21:52;;;;;;;7.57;3.90;;;11.90;99.90;;;;;;5109960;28;19987;-86
2022/10/20 11:24:29;;;;;;;7.07;3.22;;;11.90;99.90;;;;;;5109678;28;20502;-86
2022/10/20 11:27:35;;;;;;;7.50;3.70;;;11.90;99.90;;;;;;5109941;28;20403;-86
2022/10/20 11:30:20;;;;;;;7.93;3.55;;;12.00;99.90;;;;;;5091744;28;20043;-86
2022/10/20 11:32:59;;;;;;;7.50;3.85;;;11.90;99.90;;;;;;5108935;28;20059;-86
2022/10/20 11:35:47;;;;;;;6.50;3.10;;;12.00;99.90;;;;;;5109972;28;20043;-86
2022/10/20 11:38:24;;;;;;;8.77;3.53;;;12.00;99.90;;;;;;5126308;28;20404;-86
2022/10/20 11:41:07;;;;;;;10.43;4.03;;;12.10;99.90;;;;;;5109405;28;20044;-86
2022/10/20 11:43:41;;;;;;;7.20;3.70;;;12.10;99.90;;;;;;5109666;28;20039;-86
2022/10/20 11:46:35;;;;;;;6.18;3.47;;;12.10;99.90;;;;;;5109196;28;20043;-86
2022/10/20 11:49:03;;;;;;;7.68;3.97;;;12.10;99.90;;;;;;5109221;28;20128;-85
2022/10/20 11:51:29;;;;;;;7.97;4.30;;;12.10;99.90;;;;;;5092999;28;20131;-86
2022/10/20 11:54:21;;;;;;;10.68;3.83;;;12.10;99.90;;;;;;5109259;28;20441;-86
2022/10/20 11:56:59;;;;;;;9.55;3.90;;;12.20;99.90;;;;;;5109585;28;20475;-86
2022/10/20 11:59:48;;;;;;;6.82;3.28;;;12.20;99.90;;;;;;5109070;28;20484;-86
2022/10/20 12:02:20;;;;;;;7.20;3.80;;;12.30;99.90;;;;;;5109057;28;20044;-86
2022/10/20 12:05:18;;;;;;;7.07;3.75;;;12.30;99.90;;;;;;5126577;28;20075;-86
2022/10/20 12:08:07;;;;;;;8.27;3.90;;;12.30;99.90;;;;;;5109904;28;20044;-86
2022/10/20 12:10:59;;;;;;;6.68;4.00;;;12.30;99.90;;;;;;5109119;28;20040;-86
2022/10/20 12:13:58;;;;;;;7.57;3.70;;;12.30;99.90;;;;;;5108657;28;20059;-86
2022/10/20 12:16:53;;;;;;;8.70;3.95;;;12.30;99.90;;;;;;5127627;28;20082;-86
2022/10/20 12:19:29;;;;;;;8.40;4.20;;;12.30;99.90;;;;;;5112618;28;20480;-85
2022/10/20 12:22:02;;;;;;;7.20;4.10;;;12.30;99.90;;;;;;5129923;28;20587;-86
2022/10/20 12:24:55;;;;;;;9.98;4.22;;;12.30;99.90;;;;;;5112571;28;20036;-85
2022/10/20 12:27:27;;;;;;;8.25;4.40;;;12.30;99.90;;;;;;5101999;28;20135;-86
2022/10/20 12:29:56;;;;;;;9.43;4.20;;;12.30;99.90;;;;;;5112624;28;20040;-86
2022/10/20 12:32:54;;;;;;;8.80;4.50;;;12.30;99.90;;;;;;5112296;28;20068;-86
2022/10/20 12:35:21;;;;;;;6.70;4.05;;;12.30;99.90;;;;;;5094735;28;20055;-86
2022/10/20 12:37:56;;;;;;;9.02;4.13;;;12.30;99.90;;;;;;5112480;28;20419;-86
2022/10/20 12:40:33;;;;;;;8.35;3.67;;;12.30;99.90;;;;;;5112313;28;20067;-87
2022/10/20 12:43:00;;;;;;;11.18;3.70;;;12.30;99.90;;;;;;5112803;28;20082;-86
2022/10/20 12:45:40;;;;;;;8.20;3.80;;;12.30;99.90;;;;;;5078772;28;20315;-86
2022/10/20 12:48:16;;;;;;;7.30;4.00;;;12.30;99.90;;;;;;5112058;28;20040;-85
2022/10/20 12:50:45;;;;;;;10.05;4.60;;;12.20;99.90;;;;;;5112060;28;20040;-85
2022/10/20 12:53:23;;;;;;;7.45;4.00;;;12.30;99.90;;;;;;5112043;28;20525;-86
2022/10/20 12:55:57;;;;;;;11.35;4.50;;;12.20;99.90;;;;;;5129441;28;20036;-85
2022/10/20 12:58:28;;;;;;;8.65;4.32;;;12.20;99.90;;;;;;5112242;28;20061;-85
2022/10/20 13:00:57;;;;;;;8.07;4.35;;;12.20;99.90;;;;;;5112734;28;20036;-86
2022/10/20 13:03:30;;;;;;;6.93;3.88;;;12.20;99.90;;;;;;5111999;28;20480;-85
2022/10/20 13:05:58;;;;;;;10.90;4.07;;;12.20;99.90;;;;;;5112251;28;20063;-85
2022/10/20 13:08:34;;;;;;;9.38;4.30;;;12.20;99.90;;;;;;5112251;28;20035;-86
2022/10/20 13:11:36;;;;;;;10.70;4.38;;;12.20;99.90;;;;;;5112656;28;20036;-86
2022/10/20 13:14:12;;;;;;;8.38;4.53;;;12.10;99.90;;;;;;5111809;28;20112;-86
2022/10/20 13:16:49;;;;;;;7.97;4.68;;;12.20;99.90;;;;;;5112248;28;20493;-86
2022/10/20 13:19:31;;;;;;;13.95;4.90;;;12.90;99.90;;;;;;5111681;28;20085;-86